North York, Canada
Current Conditions -  °F | °C
As of 7:00 PM on Sunday 25 Jan 2015 (Local Time) from CYKZ Reporting Station
Broken Clouds Broken Clouds  
Wind Chill: -2°   Ceiling: 20000
Heat Index: 10°   Visibility: 15mi
Dew Point: -2°   Wind: 9mph
Humidity: 57%   Direction: 360°N
Pressure: 30.05"   Gusts: NA
Location:  43.77°N, 79.41°W
Report Text: CYKZ 260000Z 36008KT 15SM BKN200 M12/M19 A3005 RMK CS7 SLP190
Loading
Personal Weather Stations






























Interactive Weather Map New forecast layout! Learn more

10-Day Weather Forecast

Advertisements
Track Severe Weather on mobile